sensor_id;sensor_type;location;lat;lon;timestamp;P1;durP1;ratioP1;P2;durP2;ratioP2
40489;SDS011;26196;52.302;10.572;2023-06-14T00:02:51;2.63;;;1.38;;
40489;SDS011;26196;52.302;10.572;2023-06-14T00:06:51;3.57;;;1.50;;
40489;SDS011;26196;52.302;10.572;2023-06-14T00:10:52;2.08;;;1.33;;
40489;SDS011;26196;52.302;10.572;2023-06-14T00:14:53;1.65;;;1.20;;
40489;SDS011;26196;52.302;10.572;2023-06-14T00:18:53;2.87;;;1.50;;
40489;SDS011;26196;52.302;10.572;2023-06-14T00:22:54;1.67;;;1.27;;
40489;SDS011;26196;52.302;10.572;2023-06-14T00:26:55;2.55;;;1.50;;
40489;SDS011;26196;52.302;10.572;2023-06-14T00:30:55;1.85;;;1.40;;
40489;SDS011;26196;52.302;10.572;2023-06-14T00:34:56;1.70;;;1.53;;
40489;SDS011;26196;52.302;10.572;2023-06-14T00:38:56;3.47;;;1.38;;
40489;SDS011;26196;52.302;10.572;2023-06-14T00:42:57;2.50;;;1.33;;
40489;SDS011;26196;52.302;10.572;2023-06-14T00:46:57;1.48;;;1.17;;
40489;SDS011;26196;52.302;10.572;2023-06-14T00:50:57;1.23;;;1.10;;
40489;SDS011;26196;52.302;10.572;2023-06-14T00:54:58;1.20;;;1.10;;
40489;SDS011;26196;52.302;10.572;2023-06-14T00:58:58;1.95;;;1.50;;
40489;SDS011;26196;52.302;10.572;2023-06-14T01:03:00;1.70;;;1.60;;
40489;SDS011;26196;52.302;10.572;2023-06-14T01:07:10;1.45;;;1.35;;
40489;SDS011;26196;52.302;10.572;2023-06-14T01:11:16;1.67;;;1.30;;
40489;SDS011;26196;52.302;10.572;2023-06-14T01:15:21;1.80;;;1.27;;
40489;SDS011;26196;52.302;10.572;2023-06-14T01:19:23;1.55;;;1.20;;
40489;SDS011;26196;52.302;10.572;2023-06-14T01:23:25;2.00;;;1.30;;
40489;SDS011;26196;52.302;10.572;2023-06-14T01:27:32;1.73;;;1.30;;
40489;SDS011;26196;52.302;10.572;2023-06-14T01:31:32;2.05;;;1.40;;
40489;SDS011;26196;52.302;10.572;2023-06-14T01:35:42;1.90;;;1.70;;
40489;SDS011;26196;52.302;10.572;2023-06-14T01:39:43;1.83;;;1.60;;
40489;SDS011;26196;52.302;10.572;2023-06-14T01:43:45;2.20;;;1.27;;
40489;SDS011;26196;52.302;10.572;2023-06-14T01:47:46;3.65;;;1.40;;
40489;SDS011;26196;52.302;10.572;2023-06-14T01:51:47;1.58;;;1.20;;
40489;SDS011;26196;52.302;10.572;2023-06-14T01:55:47;4.00;;;1.53;;
40489;SDS011;26196;52.302;10.572;2023-06-14T01:59:48;1.60;;;1.15;;
40489;SDS011;26196;52.302;10.572;2023-06-14T02:03:49;2.83;;;1.20;;
40489;SDS011;26196;52.302;10.572;2023-06-14T02:07:51;1.15;;;1.05;;
40489;SDS011;26196;52.302;10.572;2023-06-14T02:11:51;2.65;;;1.80;;
40489;SDS011;26196;52.302;10.572;2023-06-14T02:15:52;1.60;;;1.17;;
40489;SDS011;26196;52.302;10.572;2023-06-14T02:19:54;1.00;;;0.90;;
40489;SDS011;26196;52.302;10.572;2023-06-14T02:23:55;2.85;;;1.00;;
40489;SDS011;26196;52.302;10.572;2023-06-14T02:27:56;1.35;;;0.90;;
40489;SDS011;26196;52.302;10.572;2023-06-14T02:31:56;1.67;;;1.40;;
40489;SDS011;26196;52.302;10.572;2023-06-14T02:35:57;1.27;;;1.15;;
40489;SDS011;26196;52.302;10.572;2023-06-14T02:39:58;1.10;;;0.98;;
40489;SDS011;26196;52.302;10.572;2023-06-14T02:43:58;1.35;;;1.17;;
40489;SDS011;26196;52.302;10.572;2023-06-14T02:47:59;2.25;;;1.08;;
40489;SDS011;26196;52.302;10.572;2023-06-14T02:52:00;1.60;;;1.30;;
40489;SDS011;26196;52.302;10.572;2023-06-14T02:56:00;1.35;;;0.90;;
40489;SDS011;26196;52.302;10.572;2023-06-14T03:00:01;1.13;;;0.95;;
40489;SDS011;26196;52.302;10.572;2023-06-14T03:04:01;1.47;;;1.03;;
40489;SDS011;26196;52.302;10.572;2023-06-14T03:08:03;1.40;;;1.10;;
40489;SDS011;26196;52.302;10.572;2023-06-14T03:12:04;1.77;;;0.93;;
40489;SDS011;26196;52.302;10.572;2023-06-14T03:16:06;2.78;;;1.00;;
40489;SDS011;26196;52.302;10.572;2023-06-14T03:20:07;5.18;;;1.42;;
40489;SDS011;26196;52.302;10.572;2023-06-14T03:24:08;7.78;;;1.80;;
40489;SDS011;26196;52.302;10.572;2023-06-14T03:28:09;5.43;;;1.42;;
40489;SDS011;26196;52.302;10.572;2023-06-14T03:32:10;5.88;;;1.42;;
40489;SDS011;26196;52.302;10.572;2023-06-14T03:36:10;2.60;;;1.23;;
40489;SDS011;26196;52.302;10.572;2023-06-14T03:40:11;2.03;;;1.20;;
40489;SDS011;26196;52.302;10.572;2023-06-14T03:44:14;2.67;;;1.08;;
40489;SDS011;26196;52.302;10.572;2023-06-14T03:48:15;5.68;;;1.67;;
40489;SDS011;26196;52.302;10.572;2023-06-14T03:52:16;15.63;;;3.72;;
40489;SDS011;26196;52.302;10.572;2023-06-14T03:56:17;20.88;;;5.22;;
40489;SDS011;26196;52.302;10.572;2023-06-14T04:00:17;18.67;;;4.57;;
40489;SDS011;26196;52.302;10.572;2023-06-14T04:04:18;12.98;;;3.45;;
40489;SDS011;26196;52.302;10.572;2023-06-14T04:08:18;7.78;;;2.55;;
40489;SDS011;26196;52.302;10.572;2023-06-14T04:12:19;6.30;;;2.30;;
40489;SDS011;26196;52.302;10.572;2023-06-14T04:16:20;8.32;;;2.20;;
40489;SDS011;26196;52.302;10.572;2023-06-14T04:20:20;6.15;;;2.33;;
40489;SDS011;26196;52.302;10.572;2023-06-14T04:24:21;5.55;;;1.88;;
40489;SDS011;26196;52.302;10.572;2023-06-14T04:28:23;5.43;;;2.38;;
40489;SDS011;26196;52.302;10.572;2023-06-14T04:32:27;6.80;;;2.10;;
40489;SDS011;26196;52.302;10.572;2023-06-14T04:36:29;4.05;;;1.70;;
40489;SDS011;26196;52.302;10.572;2023-06-14T04:40:30;2.08;;;1.42;;
40489;SDS011;26196;52.302;10.572;2023-06-14T04:44:33;8.10;;;1.60;;
40489;SDS011;26196;52.302;10.572;2023-06-14T04:48:34;1.67;;;1.17;;
40489;SDS011;26196;52.302;10.572;2023-06-14T04:52:35;3.03;;;1.30;;
40489;SDS011;26196;52.302;10.572;2023-06-14T04:56:35;5.28;;;1.38;;
40489;SDS011;26196;52.302;10.572;2023-06-14T05:00:37;7.03;;;2.65;;
40489;SDS011;26196;52.302;10.572;2023-06-14T05:04:37;4.33;;;1.80;;
40489;SDS011;26196;52.302;10.572;2023-06-14T05:08:39;7.18;;;2.45;;
40489;SDS011;26196;52.302;10.572;2023-06-14T05:12:40;4.53;;;1.88;;
40489;SDS011;26196;52.302;10.572;2023-06-14T05:16:43;3.67;;;1.52;;
40489;SDS011;26196;52.302;10.572;2023-06-14T05:20:44;2.40;;;1.30;;
40489;SDS011;26196;52.302;10.572;2023-06-14T05:24:44;2.67;;;1.23;;
40489;SDS011;26196;52.302;10.572;2023-06-14T05:28:46;2.65;;;1.20;;
40489;SDS011;26196;52.302;10.572;2023-06-14T05:32:46;1.92;;;1.10;;
40489;SDS011;26196;52.302;10.572;2023-06-14T05:36:47;1.85;;;1.02;;
40489;SDS011;26196;52.302;10.572;2023-06-14T05:40:47;2.53;;;1.37;;
40489;SDS011;26196;52.302;10.572;2023-06-14T05:44:47;1.83;;;1.30;;
40489;SDS011;26196;52.302;10.572;2023-06-14T05:48:48;1.52;;;1.05;;
40489;SDS011;26196;52.302;10.572;2023-06-14T05:52:48;1.65;;;1.02;;
40489;SDS011;26196;52.302;10.572;2023-06-14T05:56:49;4.35;;;1.30;;
40489;SDS011;26196;52.302;10.572;2023-06-14T06:00:49;1.77;;;1.25;;
40489;SDS011;26196;52.302;10.572;2023-06-14T06:04:50;3.70;;;1.40;;
40489;SDS011;26196;52.302;10.572;2023-06-14T06:08:51;3.17;;;1.30;;
40489;SDS011;26196;52.302;10.572;2023-06-14T06:12:51;1.10;;;0.87;;
40489;SDS011;26196;52.302;10.572;2023-06-14T06:16:53;2.83;;;1.00;;
40489;SDS011;26196;52.302;10.572;2023-06-14T06:20:54;2.10;;;1.20;;
40489;SDS011;26196;52.302;10.572;2023-06-14T06:24:55;1.05;;;0.95;;
40489;SDS011;26196;52.302;10.572;2023-06-14T06:28:56;1.35;;;1.02;;
40489;SDS011;26196;52.302;10.572;2023-06-14T06:32:57;1.83;;;1.00;;
40489;SDS011;26196;52.302;10.572;2023-06-14T06:36:57;2.22;;;0.90;;
40489;SDS011;26196;52.302;10.572;2023-06-14T06:40:58;2.60;;;0.90;;
40489;SDS011;26196;52.302;10.572;2023-06-14T06:44:58;1.53;;;1.03;;
40489;SDS011;26196;52.302;10.572;2023-06-14T06:48:59;2.75;;;1.00;;
40489;SDS011;26196;52.302;10.572;2023-06-14T06:53:00;2.60;;;1.83;;
40489;SDS011;26196;52.302;10.572;2023-06-14T06:57:00;1.73;;;1.00;;
40489;SDS011;26196;52.302;10.572;2023-06-14T07:01:01;3.13;;;1.08;;
40489;SDS011;26196;52.302;10.572;2023-06-14T07:05:01;1.10;;;1.00;;
40489;SDS011;26196;52.302;10.572;2023-06-14T07:09:02;2.10;;;1.10;;
40489;SDS011;26196;52.302;10.572;2023-06-14T07:13:04;3.35;;;1.08;;
40489;SDS011;26196;52.302;10.572;2023-06-14T07:17:05;1.17;;;0.95;;
40489;SDS011;26196;52.302;10.572;2023-06-14T07:21:05;1.23;;;1.02;;
40489;SDS011;26196;52.302;10.572;2023-06-14T07:25:07;4.53;;;1.00;;
40489;SDS011;26196;52.302;10.572;2023-06-14T07:29:08;1.20;;;0.80;;
40489;SDS011;26196;52.302;10.572;2023-06-14T07:33:08;1.57;;;0.80;;
40489;SDS011;26196;52.302;10.572;2023-06-14T07:37:10;1.40;;;1.05;;
40489;SDS011;26196;52.302;10.572;2023-06-14T07:41:10;2.93;;;1.00;;
40489;SDS011;26196;52.302;10.572;2023-06-14T07:45:12;2.30;;;0.93;;
40489;SDS011;26196;52.302;10.572;2023-06-14T07:49:14;2.33;;;0.82;;
40489;SDS011;26196;52.302;10.572;2023-06-14T07:53:14;1.50;;;1.05;;
40489;SDS011;26196;52.302;10.572;2023-06-14T07:57:15;3.08;;;1.35;;
40489;SDS011;26196;52.302;10.572;2023-06-14T08:01:15;2.55;;;0.73;;
40489;SDS011;26196;52.302;10.572;2023-06-14T08:05:17;1.10;;;0.82;;
40489;SDS011;26196;52.302;10.572;2023-06-14T08:09:17;1.10;;;0.77;;
40489;SDS011;26196;52.302;10.572;2023-06-14T08:13:17;1.67;;;1.15;;
40489;SDS011;26196;52.302;10.572;2023-06-14T08:17:18;0.90;;;0.70;;
40489;SDS011;26196;52.302;10.572;2023-06-14T08:21:18;1.48;;;1.00;;
40489;SDS011;26196;52.302;10.572;2023-06-14T08:25:19;1.00;;;0.73;;
40489;SDS011;26196;52.302;10.572;2023-06-14T08:29:19;3.03;;;1.00;;
40489;SDS011;26196;52.302;10.572;2023-06-14T08:33:20;0.93;;;0.80;;
40489;SDS011;26196;52.302;10.572;2023-06-14T08:37:21;0.73;;;0.70;;
40489;SDS011;26196;52.302;10.572;2023-06-14T08:41:22;1.73;;;0.77;;
40489;SDS011;26196;52.302;10.572;2023-06-14T08:45:25;0.88;;;0.50;;
40489;SDS011;26196;52.302;10.572;2023-06-14T08:49:26;0.80;;;0.60;;
40489;SDS011;26196;52.302;10.572;2023-06-14T08:53:27;1.05;;;0.60;;
40489;SDS011;26196;52.302;10.572;2023-06-14T08:57:31;0.57;;;0.57;;
40489;SDS011;26196;52.302;10.572;2023-06-14T09:01:34;1.58;;;0.82;;
40489;SDS011;26196;52.302;10.572;2023-06-14T09:05:35;1.85;;;1.00;;
40489;SDS011;26196;52.302;10.572;2023-06-14T09:09:38;1.42;;;0.90;;
40489;SDS011;26196;52.302;10.572;2023-06-14T09:13:39;0.82;;;0.60;;
40489;SDS011;26196;52.302;10.572;2023-06-14T09:17:42;1.42;;;1.00;;
40489;SDS011;26196;52.302;10.572;2023-06-14T09:21:43;0.75;;;0.47;;
40489;SDS011;26196;52.302;10.572;2023-06-14T09:25:47;1.90;;;1.10;;
40489;SDS011;26196;52.302;10.572;2023-06-14T09:29:47;0.90;;;0.70;;
40489;SDS011;26196;52.302;10.572;2023-06-14T09:33:48;0.87;;;0.83;;
40489;SDS011;26196;52.302;10.572;2023-06-14T09:37:49;0.52;;;0.47;;
40489;SDS011;26196;52.302;10.572;2023-06-14T09:41:50;0.80;;;0.70;;
40489;SDS011;26196;52.302;10.572;2023-06-14T09:45:50;2.28;;;0.50;;
40489;SDS011;26196;52.302;10.572;2023-06-14T09:49:51;1.00;;;0.70;;
40489;SDS011;26196;52.302;10.572;2023-06-14T09:53:55;2.15;;;0.82;;
40489;SDS011;26196;52.302;10.572;2023-06-14T09:58:00;0.63;;;0.40;;
40489;SDS011;26196;52.302;10.572;2023-06-14T10:06:09;1.23;;;0.52;;
40489;SDS011;26196;52.302;10.572;2023-06-14T10:10:09;0.93;;;0.80;;
40489;SDS011;26196;52.302;10.572;2023-06-14T10:14:11;1.00;;;0.70;;
40489;SDS011;26196;52.302;10.572;2023-06-14T10:18:17;1.48;;;0.77;;
40489;SDS011;26196;52.302;10.572;2023-06-14T10:22:31;2.50;;;0.90;;
40489;SDS011;26196;52.302;10.572;2023-06-14T10:26:40;0.65;;;0.63;;
40489;SDS011;26196;52.302;10.572;2023-06-14T10:31:03;1.42;;;1.05;;
40489;SDS011;26196;52.302;10.572;2023-06-14T10:35:05;2.13;;;1.10;;
40489;SDS011;26196;52.302;10.572;2023-06-14T10:39:12;1.52;;;1.20;;
40489;SDS011;26196;52.302;10.572;2023-06-14T10:43:22;1.17;;;0.85;;
40489;SDS011;26196;52.302;10.572;2023-06-14T10:47:30;1.00;;;0.82;;
40489;SDS011;26196;52.302;10.572;2023-06-14T10:51:38;1.27;;;0.90;;
40489;SDS011;26196;52.302;10.572;2023-06-14T10:55:45;2.45;;;1.13;;
40489;SDS011;26196;52.302;10.572;2023-06-14T10:59:46;1.73;;;1.08;;
40489;SDS011;26196;52.302;10.572;2023-06-14T11:03:50;1.30;;;0.90;;
40489;SDS011;26196;52.302;10.572;2023-06-14T11:12:09;1.43;;;1.33;;
40489;SDS011;26196;52.302;10.572;2023-06-14T11:16:15;1.90;;;1.23;;
40489;SDS011;26196;52.302;10.572;2023-06-14T11:20:17;1.58;;;1.30;;
40489;SDS011;26196;52.302;10.572;2023-06-14T11:24:18;2.03;;;1.20;;
40489;SDS011;26196;52.302;10.572;2023-06-14T11:28:19;1.63;;;1.40;;
40489;SDS011;26196;52.302;10.572;2023-06-14T11:32:21;2.80;;;1.50;;
40489;SDS011;26196;52.302;10.572;2023-06-14T11:36:21;3.53;;;1.30;;
40489;SDS011;26196;52.302;10.572;2023-06-14T11:40:25;2.90;;;1.10;;
40489;SDS011;26196;52.302;10.572;2023-06-14T11:44:27;2.10;;;1.40;;
40489;SDS011;26196;52.302;10.572;2023-06-14T11:48:38;1.63;;;1.00;;
40489;SDS011;26196;52.302;10.572;2023-06-14T11:52:40;3.38;;;1.38;;
40489;SDS011;26196;52.302;10.572;2023-06-14T11:56:41;2.33;;;1.80;;
40489;SDS011;26196;52.302;10.572;2023-06-14T12:00:42;2.10;;;1.83;;
40489;SDS011;26196;52.302;10.572;2023-06-14T12:04:43;1.50;;;1.27;;
40489;SDS011;26196;52.302;10.572;2023-06-14T12:08:47;4.38;;;1.33;;
40489;SDS011;26196;52.302;10.572;2023-06-14T12:12:49;3.92;;;0.90;;
40489;SDS011;26196;52.302;10.572;2023-06-14T12:16:49;2.43;;;1.20;;
40489;SDS011;26196;52.302;10.572;2023-06-14T12:20:50;3.20;;;1.02;;
40489;SDS011;26196;52.302;10.572;2023-06-14T12:24:50;2.08;;;1.50;;
40489;SDS011;26196;52.302;10.572;2023-06-14T12:28:52;2.92;;;1.33;;
40489;SDS011;26196;52.302;10.572;2023-06-14T12:32:52;1.38;;;1.00;;
40489;SDS011;26196;52.302;10.572;2023-06-14T12:36:53;3.27;;;1.33;;
40489;SDS011;26196;52.302;10.572;2023-06-14T12:40:54;2.90;;;1.30;;
40489;SDS011;26196;52.302;10.572;2023-06-14T12:44:54;3.30;;;1.35;;
40489;SDS011;26196;52.302;10.572;2023-06-14T12:48:55;3.97;;;1.75;;
40489;SDS011;26196;52.302;10.572;2023-06-14T12:52:55;1.90;;;1.40;;
40489;SDS011;26196;52.302;10.572;2023-06-14T12:56:55;6.63;;;1.33;;
40489;SDS011;26196;52.302;10.572;2023-06-14T13:00:56;4.43;;;1.90;;
40489;SDS011;26196;52.302;10.572;2023-06-14T13:04:56;3.20;;;1.60;;
40489;SDS011;26196;52.302;10.572;2023-06-14T13:09:00;5.07;;;1.50;;
40489;SDS011;26196;52.302;10.572;2023-06-14T13:13:01;3.50;;;1.98;;
40489;SDS011;26196;52.302;10.572;2023-06-14T13:17:02;9.38;;;4.13;;
40489;SDS011;26196;52.302;10.572;2023-06-14T13:21:03;3.22;;;1.17;;
40489;SDS011;26196;52.302;10.572;2023-06-14T13:25:03;2.60;;;1.80;;
40489;SDS011;26196;52.302;10.572;2023-06-14T13:29:04;5.35;;;2.30;;
40489;SDS011;26196;52.302;10.572;2023-06-14T13:33:05;2.03;;;1.45;;
40489;SDS011;26196;52.302;10.572;2023-06-14T13:37:05;5.77;;;2.03;;
40489;SDS011;26196;52.302;10.572;2023-06-14T13:41:06;2.08;;;0.95;;
40489;SDS011;26196;52.302;10.572;2023-06-14T13:45:07;2.45;;;1.33;;
40489;SDS011;26196;52.302;10.572;2023-06-14T13:49:08;8.88;;;4.13;;
40489;SDS011;26196;52.302;10.572;2023-06-14T13:53:08;13.23;;;5.28;;
40489;SDS011;26196;52.302;10.572;2023-06-14T13:57:09;11.17;;;5.93;;
40489;SDS011;26196;52.302;10.572;2023-06-14T14:01:12;10.18;;;3.90;;
40489;SDS011;26196;52.302;10.572;2023-06-14T14:05:13;6.22;;;3.75;;
40489;SDS011;26196;52.302;10.572;2023-06-14T14:09:13;7.03;;;3.87;;
40489;SDS011;26196;52.302;10.572;2023-06-14T14:13:14;7.82;;;3.72;;
40489;SDS011;26196;52.302;10.572;2023-06-14T14:17:14;6.78;;;3.33;;
40489;SDS011;26196;52.302;10.572;2023-06-14T14:21:14;5.10;;;2.30;;
40489;SDS011;26196;52.302;10.572;2023-06-14T14:25:15;4.47;;;2.07;;
40489;SDS011;26196;52.302;10.572;2023-06-14T14:29:16;2.50;;;1.63;;
40489;SDS011;26196;52.302;10.572;2023-06-14T14:33:17;2.58;;;1.60;;
40489;SDS011;26196;52.302;10.572;2023-06-14T14:37:17;6.35;;;2.95;;
40489;SDS011;26196;52.302;10.572;2023-06-14T14:41:17;2.47;;;1.70;;
40489;SDS011;26196;52.302;10.572;2023-06-14T14:45:18;4.03;;;2.33;;
40489;SDS011;26196;52.302;10.572;2023-06-14T14:49:18;3.13;;;1.90;;
40489;SDS011;26196;52.302;10.572;2023-06-14T14:53:18;3.97;;;2.10;;
40489;SDS011;26196;52.302;10.572;2023-06-14T14:57:19;4.90;;;2.20;;
40489;SDS011;26196;52.302;10.572;2023-06-14T15:01:21;2.67;;;2.00;;
40489;SDS011;26196;52.302;10.572;2023-06-14T15:05:21;4.27;;;1.87;;
40489;SDS011;26196;52.302;10.572;2023-06-14T15:09:21;3.63;;;1.90;;
40489;SDS011;26196;52.302;10.572;2023-06-14T15:13:22;4.43;;;1.50;;
40489;SDS011;26196;52.302;10.572;2023-06-14T15:17:23;2.30;;;1.38;;
40489;SDS011;26196;52.302;10.572;2023-06-14T15:21:24;1.85;;;1.33;;
40489;SDS011;26196;52.302;10.572;2023-06-14T15:25:28;3.55;;;1.60;;
40489;SDS011;26196;52.302;10.572;2023-06-14T15:29:28;2.40;;;1.90;;
40489;SDS011;26196;52.302;10.572;2023-06-14T15:33:29;3.00;;;2.00;;
40489;SDS011;26196;52.302;10.572;2023-06-14T15:37:29;4.28;;;1.50;;
40489;SDS011;26196;52.302;10.572;2023-06-14T15:41:30;6.95;;;2.40;;
40489;SDS011;26196;52.302;10.572;2023-06-14T15:45:30;2.17;;;1.73;;
40489;SDS011;26196;52.302;10.572;2023-06-14T15:49:31;2.50;;;1.65;;
40489;SDS011;26196;52.302;10.572;2023-06-14T15:53:31;3.00;;;1.40;;
40489;SDS011;26196;52.302;10.572;2023-06-14T15:57:31;6.30;;;2.08;;
40489;SDS011;26196;52.302;10.572;2023-06-14T16:01:32;2.53;;;1.70;;
40489;SDS011;26196;52.302;10.572;2023-06-14T16:05:33;1.65;;;1.52;;
40489;SDS011;26196;52.302;10.572;2023-06-14T16:09:33;1.80;;;1.60;;
40489;SDS011;26196;52.302;10.572;2023-06-14T16:13:34;2.33;;;1.60;;
40489;SDS011;26196;52.302;10.572;2023-06-14T16:17:34;4.57;;;2.42;;
40489;SDS011;26196;52.302;10.572;2023-06-14T16:21:35;4.63;;;2.00;;
40489;SDS011;26196;52.302;10.572;2023-06-14T16:25:36;3.80;;;1.58;;
40489;SDS011;26196;52.302;10.572;2023-06-14T16:29:36;4.07;;;1.83;;
40489;SDS011;26196;52.302;10.572;2023-06-14T16:33:37;4.10;;;2.00;;
40489;SDS011;26196;52.302;10.572;2023-06-14T16:37:37;5.57;;;1.98;;
40489;SDS011;26196;52.302;10.572;2023-06-14T16:41:38;2.13;;;1.63;;
40489;SDS011;26196;52.302;10.572;2023-06-14T16:45:44;4.05;;;1.77;;
40489;SDS011;26196;52.302;10.572;2023-06-14T16:49:45;4.75;;;2.00;;
40489;SDS011;26196;52.302;10.572;2023-06-14T16:53:45;7.18;;;2.60;;
40489;SDS011;26196;52.302;10.572;2023-06-14T16:57:45;2.85;;;2.03;;
40489;SDS011;26196;52.302;10.572;2023-06-14T17:01:49;3.35;;;1.52;;
40489;SDS011;26196;52.302;10.572;2023-06-14T17:05:54;3.55;;;2.45;;
40489;SDS011;26196;52.302;10.572;2023-06-14T17:09:57;3.17;;;1.98;;
40489;SDS011;26196;52.302;10.572;2023-06-14T17:13:57;3.30;;;1.80;;
40489;SDS011;26196;52.302;10.572;2023-06-14T17:17:57;5.60;;;2.43;;
40489;SDS011;26196;52.302;10.572;2023-06-14T17:21:58;4.80;;;2.60;;
40489;SDS011;26196;52.302;10.572;2023-06-14T17:25:58;8.50;;;2.42;;
40489;SDS011;26196;52.302;10.572;2023-06-14T17:29:58;3.30;;;2.28;;
40489;SDS011;26196;52.302;10.572;2023-06-14T17:33:59;7.88;;;2.42;;
40489;SDS011;26196;52.302;10.572;2023-06-14T17:38:00;4.63;;;2.03;;
40489;SDS011;26196;52.302;10.572;2023-06-14T17:42:00;4.72;;;2.50;;
40489;SDS011;26196;52.302;10.572;2023-06-14T17:46:00;7.27;;;3.43;;
40489;SDS011;26196;52.302;10.572;2023-06-14T17:50:01;4.40;;;2.80;;
40489;SDS011;26196;52.302;10.572;2023-06-14T17:54:03;12.68;;;3.35;;
40489;SDS011;26196;52.302;10.572;2023-06-14T17:58:04;4.45;;;2.22;;
40489;SDS011;26196;52.302;10.572;2023-06-14T18:02:05;4.43;;;2.25;;
40489;SDS011;26196;52.302;10.572;2023-06-14T18:06:06;3.75;;;2.42;;
40489;SDS011;26196;52.302;10.572;2023-06-14T18:10:06;9.18;;;2.30;;
40489;SDS011;26196;52.302;10.572;2023-06-14T18:14:07;5.03;;;2.22;;
40489;SDS011;26196;52.302;10.572;2023-06-14T18:18:07;3.25;;;2.50;;
40489;SDS011;26196;52.302;10.572;2023-06-14T18:22:08;2.97;;;2.15;;
40489;SDS011;26196;52.302;10.572;2023-06-14T18:26:08;3.15;;;2.20;;
40489;SDS011;26196;52.302;10.572;2023-06-14T18:30:08;2.93;;;1.90;;
40489;SDS011;26196;52.302;10.572;2023-06-14T18:34:09;4.85;;;2.25;;
40489;SDS011;26196;52.302;10.572;2023-06-14T18:38:11;4.07;;;2.20;;
40489;SDS011;26196;52.302;10.572;2023-06-14T18:42:11;2.72;;;2.00;;
40489;SDS011;26196;52.302;10.572;2023-06-14T18:46:12;3.43;;;2.63;;
40489;SDS011;26196;52.302;10.572;2023-06-14T18:50:12;2.85;;;1.92;;
40489;SDS011;26196;52.302;10.572;2023-06-14T18:54:12;3.80;;;2.60;;
40489;SDS011;26196;52.302;10.572;2023-06-14T18:58:13;2.97;;;2.00;;
40489;SDS011;26196;52.302;10.572;2023-06-14T19:02:16;2.63;;;2.03;;
40489;SDS011;26196;52.302;10.572;2023-06-14T19:06:18;4.60;;;2.15;;
40489;SDS011;26196;52.302;10.572;2023-06-14T19:10:18;3.97;;;2.30;;
40489;SDS011;26196;52.302;10.572;2023-06-14T19:14:19;4.68;;;2.17;;
40489;SDS011;26196;52.302;10.572;2023-06-14T19:18:19;4.10;;;2.30;;
40489;SDS011;26196;52.302;10.572;2023-06-14T19:22:20;6.18;;;2.90;;
40489;SDS011;26196;52.302;10.572;2023-06-14T19:26:20;5.97;;;2.75;;
40489;SDS011;26196;52.302;10.572;2023-06-14T19:30:20;6.60;;;2.53;;
40489;SDS011;26196;52.302;10.572;2023-06-14T19:34:21;6.55;;;2.42;;
40489;SDS011;26196;52.302;10.572;2023-06-14T19:38:21;8.63;;;2.35;;
40489;SDS011;26196;52.302;10.572;2023-06-14T19:42:22;5.30;;;2.70;;
40489;SDS011;26196;52.302;10.572;2023-06-14T19:46:22;8.57;;;2.67;;
40489;SDS011;26196;52.302;10.572;2023-06-14T19:50:25;8.00;;;3.25;;
40489;SDS011;26196;52.302;10.572;2023-06-14T19:54:25;8.35;;;2.70;;
40489;SDS011;26196;52.302;10.572;2023-06-14T19:58:26;8.32;;;2.58;;
40489;SDS011;26196;52.302;10.572;2023-06-14T20:02:26;7.63;;;2.97;;
40489;SDS011;26196;52.302;10.572;2023-06-14T20:06:26;6.53;;;2.33;;
40489;SDS011;26196;52.302;10.572;2023-06-14T20:10:27;5.65;;;2.65;;
40489;SDS011;26196;52.302;10.572;2023-06-14T20:14:28;10.73;;;3.00;;
40489;SDS011;26196;52.302;10.572;2023-06-14T20:18:28;5.67;;;2.30;;
40489;SDS011;26196;52.302;10.572;2023-06-14T20:22:29;7.50;;;2.50;;
40489;SDS011;26196;52.302;10.572;2023-06-14T20:26:29;10.18;;;2.65;;
40489;SDS011;26196;52.302;10.572;2023-06-14T20:30:29;3.20;;;2.10;;
40489;SDS011;26196;52.302;10.572;2023-06-14T20:34:30;5.47;;;2.72;;
40489;SDS011;26196;52.302;10.572;2023-06-14T20:38:30;3.30;;;2.20;;
40489;SDS011;26196;52.302;10.572;2023-06-14T20:42:31;4.45;;;2.33;;
40489;SDS011;26196;52.302;10.572;2023-06-14T20:46:32;5.22;;;2.65;;
40489;SDS011;26196;52.302;10.572;2023-06-14T20:50:35;4.25;;;2.30;;
40489;SDS011;26196;52.302;10.572;2023-06-14T20:54:35;4.40;;;2.33;;
40489;SDS011;26196;52.302;10.572;2023-06-14T20:58:36;5.63;;;2.38;;
40489;SDS011;26196;52.302;10.572;2023-06-14T21:02:37;3.97;;;2.65;;
40489;SDS011;26196;52.302;10.572;2023-06-14T21:06:38;5.05;;;2.38;;
40489;SDS011;26196;52.302;10.572;2023-06-14T21:10:38;5.75;;;2.65;;
40489;SDS011;26196;52.302;10.572;2023-06-14T21:14:39;7.13;;;2.30;;
40489;SDS011;26196;52.302;10.572;2023-06-14T21:18:39;6.25;;;2.35;;
40489;SDS011;26196;52.302;10.572;2023-06-14T21:22:40;5.13;;;2.35;;
40489;SDS011;26196;52.302;10.572;2023-06-14T21:26:40;4.13;;;2.70;;
40489;SDS011;26196;52.302;10.572;2023-06-14T21:30:41;6.37;;;2.07;;
40489;SDS011;26196;52.302;10.572;2023-06-14T21:34:42;2.80;;;2.03;;
40489;SDS011;26196;52.302;10.572;2023-06-14T21:38:42;4.20;;;2.63;;
40489;SDS011;26196;52.302;10.572;2023-06-14T21:42:43;4.73;;;2.27;;
40489;SDS011;26196;52.302;10.572;2023-06-14T21:46:44;2.88;;;2.28;;
40489;SDS011;26196;52.302;10.572;2023-06-14T21:50:44;2.63;;;1.93;;
40489;SDS011;26196;52.302;10.572;2023-06-14T21:54:45;4.70;;;2.60;;
40489;SDS011;26196;52.302;10.572;2023-06-14T21:58:45;3.63;;;2.07;;
40489;SDS011;26196;52.302;10.572;2023-06-14T22:02:45;2.73;;;2.43;;
40489;SDS011;26196;52.302;10.572;2023-06-14T22:06:46;3.05;;;2.45;;
40489;SDS011;26196;52.302;10.572;2023-06-14T22:10:46;3.70;;;2.40;;
40489;SDS011;26196;52.302;10.572;2023-06-14T22:14:49;2.20;;;2.00;;
40489;SDS011;26196;52.302;10.572;2023-06-14T22:18:49;2.92;;;1.80;;
40489;SDS011;26196;52.302;10.572;2023-06-14T22:22:50;2.33;;;2.10;;
40489;SDS011;26196;52.302;10.572;2023-06-14T22:26:50;2.63;;;1.80;;
40489;SDS011;26196;52.302;10.572;2023-06-14T22:30:56;3.67;;;2.80;;
40489;SDS011;26196;52.302;10.572;2023-06-14T22:34:57;2.75;;;1.98;;
40489;SDS011;26196;52.302;10.572;2023-06-14T22:39:02;2.47;;;1.75;;
40489;SDS011;26196;52.302;10.572;2023-06-14T22:43:02;2.63;;;1.85;;
40489;SDS011;26196;52.302;10.572;2023-06-14T22:47:02;2.10;;;1.80;;
40489;SDS011;26196;52.302;10.572;2023-06-14T22:51:03;2.38;;;1.90;;
40489;SDS011;26196;52.302;10.572;2023-06-14T22:55:03;2.57;;;1.93;;
40489;SDS011;26196;52.302;10.572;2023-06-14T22:59:04;2.55;;;1.83;;
40489;SDS011;26196;52.302;10.572;2023-06-14T23:03:04;2.80;;;1.70;;
40489;SDS011;26196;52.302;10.572;2023-06-14T23:07:04;2.67;;;2.20;;
40489;SDS011;26196;52.302;10.572;2023-06-14T23:11:05;2.83;;;2.00;;
40489;SDS011;26196;52.302;10.572;2023-06-14T23:15:05;2.88;;;2.00;;
40489;SDS011;26196;52.302;10.572;2023-06-14T23:19:06;4.93;;;1.92;;
40489;SDS011;26196;52.302;10.572;2023-06-14T23:23:06;2.78;;;2.13;;
40489;SDS011;26196;52.302;10.572;2023-06-14T23:27:07;2.90;;;1.80;;
40489;SDS011;26196;52.302;10.572;2023-06-14T23:31:08;2.30;;;1.88;;
40489;SDS011;26196;52.302;10.572;2023-06-14T23:35:09;3.35;;;1.92;;
40489;SDS011;26196;52.302;10.572;2023-06-14T23:39:10;2.63;;;1.83;;
40489;SDS011;26196;52.302;10.572;2023-06-14T23:43:11;4.05;;;2.30;;
40489;SDS011;26196;52.302;10.572;2023-06-14T23:47:14;2.00;;;1.65;;
40489;SDS011;26196;52.302;10.572;2023-06-14T23:51:14;3.20;;;2.20;;
40489;SDS011;26196;52.302;10.572;2023-06-14T23:55:18;3.47;;;2.38;;
40489;SDS011;26196;52.302;10.572;2023-06-14T23:59:22;2.97;;;2.00;;
